Time;durP1;ratioP1;P1;durP2;ratioP2;P2;SDS_P1;SDS_P2;PMS_P1;PMS_P2;Temp;Humidity;BMP_temperature;BMP_pressure;BME280_temperature;BME280_humidity;BME280_pressure;Samples;Min_cycle;Max_cycle;Signal;HPM_P1;HPM_P2
2023/10/23 00:00:11;;;;;;;5.68;4.13;;;;;;;;;;4994176;28;20022;-75
2023/10/23 00:02:38;;;;;;;14.93;4.47;;;;;;;;;;4995874;28;20026;-75
2023/10/23 00:05:04;;;;;;;7.72;4.30;;;;;;;;;;4994499;28;20133;-75
2023/10/23 00:07:30;;;;;;;21.35;4.25;;;;;;;;;;4992640;28;20069;-76
2023/10/23 00:09:55;;;;;;;7.60;3.97;;;;;;;;;;4992489;28;20057;-76
2023/10/23 00:12:20;;;;;;;5.78;4.18;;;;;;;;;;4994617;28;20034;-77
2023/10/23 00:14:46;;;;;;;6.93;4.00;;;;;;;;;;4994773;28;20018;-75
2023/10/23 00:17:11;;;;;;;5.68;4.25;;;;;;;;;;4995591;28;20030;-75
2023/10/23 00:19:36;;;;;;;6.60;4.20;;;;;;;;;;4997372;28;20065;-77
2023/10/23 00:22:02;;;;;;;6.57;4.25;;;;;;;;;;5001109;28;20127;-77
2023/10/23 00:24:27;;;;;;;15.90;5.10;;;;;;;;;;4991998;28;20374;-75
2023/10/23 00:26:52;;;;;;;6.20;4.55;;;;;;;;;;5006598;28;20510;-74
2023/10/23 00:29:18;;;;;;;5.93;4.45;;;;;;;;;;4994504;28;20474;-77
2023/10/23 00:31:43;;;;;;;8.82;4.30;;;;;;;;;;4998116;28;20180;-75
2023/10/23 00:34:08;;;;;;;11.65;4.10;;;;;;;;;;4998977;28;20419;-75
2023/10/23 00:36:34;;;;;;;6.57;4.20;;;;;;;;;;4991442;28;20494;-75
2023/10/23 00:38:59;;;;;;;6.60;3.80;;;;;;;;;;4994186;28;20027;-75
2023/10/23 00:41:24;;;;;;;5.63;3.70;;;;;;;;;;4999213;28;20044;-75
2023/10/23 00:43:49;;;;;;;3.72;3.35;;;;;;;;;;4993983;28;20124;-76
2023/10/23 00:46:19;;;;;;;4.00;3.53;;;;;;;;;;4992864;28;20030;-75
2023/10/23 00:48:46;;;;;;;7.78;4.00;;;;;;;;;;4994003;28;20038;-75
2023/10/23 00:51:12;;;;;;;5.53;3.80;;;;;;;;;;4997561;28;20401;-75
2023/10/23 00:53:39;;;;;;;4.68;3.45;;;;;;;;;;4997180;28;20022;-75
2023/10/23 00:56:06;;;;;;;4.15;3.42;;;;;;;;;;4995668;28;20049;-77
2023/10/23 00:58:33;;;;;;;12.48;3.83;;;;;;;;;;4996116;28;20467;-75
2023/10/23 01:00:59;;;;;;;8.80;4.03;;;;;;;;;;4995922;28;20122;-75
2023/10/23 01:03:25;;;;;;;84.15;7.32;;;;;;;;;;4991281;28;20509;-75
2023/10/23 01:05:51;;;;;;;9.18;4.10;;;;;;;;;;4997569;28;20417;-75
2023/10/23 01:08:17;;;;;;;55.55;5.88;;;;;;;;;;4994243;28;20041;-78
2023/10/23 01:10:42;;;;;;;204.77;12.82;;;;;;;;;;4993983;28;20510;-75
2023/10/23 01:13:08;;;;;;;8.25;4.60;;;;;;;;;;4997845;28;20034;-75
2023/10/23 01:15:34;;;;;;;7.88;4.07;;;;;;;;;;4995141;28;20618;-75
2023/10/23 01:18:00;;;;;;;496.23;34.03;;;;;;;;;;4992347;28;20034;-76
2023/10/23 01:20:27;;;;;;;4.28;3.75;;;;;;;;;;5005954;28;20030;-75
2023/10/23 01:22:57;;;;;;;6.43;4.30;;;;;;;;;;5008308;28;20058;-76
2023/10/23 01:25:22;;;;;;;139.68;9.55;;;;;;;;;;4989525;28;20117;-75
2023/10/23 01:27:47;;;;;;;14.10;3.70;;;;;;;;;;4994444;28;20038;-75
2023/10/23 01:30:13;;;;;;;6.50;3.47;;;;;;;;;;4993050;28;20546;-76
2023/10/23 01:32:38;;;;;;;6.38;3.83;;;;;;;;;;4997235;28;20546;-75
2023/10/23 01:35:04;;;;;;;4.97;4.30;;;;;;;;;;5000859;28;20047;-75
2023/10/23 01:37:29;;;;;;;5.40;3.63;;;;;;;;;;4996149;28;20073;-75
2023/10/23 01:39:55;;;;;;;10.70;5.25;;;;;;;;;;4994945;28;20418;-76
2023/10/23 01:42:20;;;;;;;12.95;6.72;;;;;;;;;;5000633;28;20031;-76
2023/10/23 01:44:45;;;;;;;6.60;5.47;;;;;;;;;;5004929;28;20446;-75
2023/10/23 01:47:11;;;;;;;7.32;5.00;;;;;;;;;;4990585;28;20487;-75
2023/10/23 01:49:37;;;;;;;5.38;4.82;;;;;;;;;;4997773;28;20121;-75
2023/10/23 01:52:02;;;;;;;38.08;6.35;;;;;;;;;;4990430;28;20141;-75
2023/10/23 01:54:28;;;;;;;53.13;6.43;;;;;;;;;;4996214;28;20041;-76
2023/10/23 01:56:53;;;;;;;42.30;6.20;;;;;;;;;;5002244;28;20030;-77
2023/10/23 01:59:18;;;;;;;420.48;24.58;;;;;;;;;;4996263;28;20289;-75
2023/10/23 02:01:43;;;;;;;5.30;3.47;;;;;;;;;;5000358;28;20035;-77
2023/10/23 02:04:09;;;;;;;4.80;3.50;;;;;;;;;;4998088;28;20402;-74
2023/10/23 02:06:34;;;;;;;5.85;4.70;;;;;;;;;;4997414;28;20494;-74
2023/10/23 02:09:00;;;;;;;10.80;4.47;;;;;;;;;;4995263;28;20113;-76
2023/10/23 02:11:25;;;;;;;13.50;7.88;;;;;;;;;;4999366;28;20227;-75
2023/10/23 02:13:51;;;;;;;14.40;7.15;;;;;;;;;;4994441;28;20038;-75
2023/10/23 02:16:16;;;;;;;24.85;8.40;;;;;;;;;;5000209;28;20041;-76
2023/10/23 02:18:41;;;;;;;9.95;6.13;;;;;;;;;;4994219;28;20088;-75
2023/10/23 02:21:07;;;;;;;4.80;4.28;;;;;;;;;;4997803;28;20092;-74
2023/10/23 02:23:32;;;;;;;6.35;4.82;;;;;;;;;;5002895;28;20028;-77
2023/10/23 02:25:58;;;;;;;12.15;5.10;;;;;;;;;;4997963;28;20129;-76
2023/10/23 02:28:23;;;;;;;126.28;10.07;;;;;;;;;;4999542;28;20058;-77
2023/10/23 02:30:49;;;;;;;29.23;5.50;;;;;;;;;;4996991;28;20116;-75
2023/10/23 02:33:14;;;;;;;10.68;4.18;;;;;;;;;;4997118;28;20023;-75
2023/10/23 02:35:40;;;;;;;7.65;3.95;;;;;;;;;;5005013;28;20037;-75
2023/10/23 02:38:05;;;;;;;6.07;4.10;;;;;;;;;;4996618;28;20034;-75
2023/10/23 02:40:31;;;;;;;4.40;3.65;;;;;;;;;;4997924;28;20477;-75
2023/10/23 02:42:56;;;;;;;230.43;13.85;;;;;;;;;;4999916;28;20110;-75
2023/10/23 02:45:22;;;;;;;7.28;3.53;;;;;;;;;;5001071;28;20032;-75
2023/10/23 02:47:47;;;;;;;5.53;3.50;;;;;;;;;;4994159;28;20110;-77
2023/10/23 02:50:12;;;;;;;4.25;3.55;;;;;;;;;;5003043;28;20510;-75
2023/10/23 02:52:38;;;;;;;6.32;3.67;;;;;;;;;;5000427;28;20084;-74
2023/10/23 02:55:04;;;;;;;9.40;3.90;;;;;;;;;;4995374;28;20473;-74
2023/10/23 02:57:29;;;;;;;27.55;5.85;;;;;;;;;;4997447;28;20034;-75
2023/10/23 02:59:56;;;;;;;154.10;12.95;;;;;;;;;;4994967;28;20529;-76
2023/10/23 03:02:22;;;;;;;4.75;3.83;;;;;;;;;;4996547;28;20372;-76
2023/10/23 03:04:47;;;;;;;10.35;4.97;;;;;;;;;;4996810;28;20034;-75
2023/10/23 03:07:13;;;;;;;6.78;4.28;;;;;;;;;;4992604;28;20527;-75
2023/10/23 03:09:38;;;;;;;9.18;5.55;;;;;;;;;;4999583;28;20044;-75
2023/10/23 03:12:04;;;;;;;12.98;7.20;;;;;;;;;;4996926;28;20109;-77
2023/10/23 03:14:29;;;;;;;10.20;6.88;;;;;;;;;;5003668;28;20129;-76
2023/10/23 03:16:55;;;;;;;11.20;6.35;;;;;;;;;;4999465;28;20034;-74
2023/10/23 03:19:22;;;;;;;10.80;5.30;;;;;;;;;;4994772;28;20124;-75
2023/10/23 03:21:48;;;;;;;13.40;5.30;;;;;;;;;;4998053;28;20026;-75
2023/10/23 03:24:13;;;;;;;8.15;5.10;;;;;;;;;;4988170;28;20041;-75
2023/10/23 03:26:38;;;;;;;7.97;4.97;;;;;;;;;;4993103;28;20025;-75
2023/10/23 03:29:04;;;;;;;8.10;4.68;;;;;;;;;;4997707;28;20038;-76
2023/10/23 03:31:32;;;;;;;7.28;5.18;;;;;;;;;;4993023;28;20125;-76
2023/10/23 03:33:58;;;;;;;16.48;5.22;;;;;;;;;;4996081;28;20422;-76
2023/10/23 03:36:23;;;;;;;15.98;5.35;;;;;;;;;;4998422;28;20052;-76
2023/10/23 03:38:48;;;;;;;7.45;5.00;;;;;;;;;;4998394;28;20022;-77
2023/10/23 03:41:14;;;;;;;6.20;4.72;;;;;;;;;;4997406;28;20155;-76
2023/10/23 03:43:40;;;;;;;14.50;4.88;;;;;;;;;;5000493;28;20124;-75
2023/10/23 03:46:06;;;;;;;5.90;4.65;;;;;;;;;;4999776;28;20089;-76
2023/10/23 03:48:34;;;;;;;10.07;7.45;;;;;;;;;;4997478;28;20043;-76
2023/10/23 03:51:00;;;;;;;18.92;10.95;;;;;;;;;;5000412;28;20113;-76
2023/10/23 03:53:25;;;;;;;13.32;7.72;;;;;;;;;;4995445;28;20133;-76
2023/10/23 03:55:51;;;;;;;12.80;8.02;;;;;;;;;;5000648;28;20164;-76
2023/10/23 03:58:16;;;;;;;31.35;7.15;;;;;;;;;;5006821;28;20114;-76
2023/10/23 04:00:41;;;;;;;109.75;11.50;;;;;;;;;;4992273;28;20406;-76
2023/10/23 04:03:07;;;;;;;7.47;5.63;;;;;;;;;;4999518;28;20382;-76
2023/10/23 04:05:39;;;;;;;9.07;6.30;;;;;;;;;;4998929;28;20034;-76
2023/10/23 04:08:04;;;;;;;125.82;10.82;;;;;;;;;;4998531;28;20037;-76
2023/10/23 04:10:29;;;;;;;6.03;4.13;;;;;;;;;;5000663;28;20070;-76
2023/10/23 04:12:54;;;;;;;8.00;4.07;;;;;;;;;;4998501;28;20077;-76
2023/10/23 04:15:20;;;;;;;116.05;11.23;;;;;;;;;;4998956;28;20026;-76
2023/10/23 04:17:45;;;;;;;12.00;6.30;;;;;;;;;;4998011;28;20183;-76
2023/10/23 04:20:10;;;;;;;396.70;26.27;;;;;;;;;;4998578;28;20419;-76
2023/10/23 04:22:36;;;;;;;12.48;5.53;;;;;;;;;;4993166;28;20437;-76
2023/10/23 04:25:01;;;;;;;11.38;6.32;;;;;;;;;;4996469;28;20074;-76
2023/10/23 04:27:26;;;;;;;12.63;7.10;;;;;;;;;;4998508;28;20034;-76
2023/10/23 04:29:53;;;;;;;8.27;6.30;;;;;;;;;;4996168;28;20037;-76
2023/10/23 04:32:18;;;;;;;16.42;6.20;;;;;;;;;;4993632;28;20622;-76
2023/10/23 04:34:44;;;;;;;12.07;6.05;;;;;;;;;;4993976;28;20043;-76
2023/10/23 04:37:09;;;;;;;117.78;11.45;;;;;;;;;;4994224;28;20041;-76
2023/10/23 04:39:34;;;;;;;13.75;8.80;;;;;;;;;;4993642;28;20031;-76
2023/10/23 04:42:01;;;;;;;8.10;5.25;;;;;;;;;;4996974;28;20467;-76
2023/10/23 04:44:26;;;;;;;7.03;5.18;;;;;;;;;;4998826;28;20026;-76
2023/10/23 04:46:52;;;;;;;9.82;5.80;;;;;;;;;;5001469;28;20042;-76
2023/10/23 04:49:17;;;;;;;10.23;6.35;;;;;;;;;;5001709;28;20038;-76
2023/10/23 04:51:42;;;;;;;9.50;6.05;;;;;;;;;;4994094;28;20058;-75
2023/10/23 04:54:08;;;;;;;12.98;5.10;;;;;;;;;;4993639;28;20022;-76
2023/10/23 04:56:33;;;;;;;13.10;6.40;;;;;;;;;;4997479;28;20390;-76
2023/10/23 04:58:58;;;;;;;12.13;8.23;;;;;;;;;;4995162;28;20042;-76
2023/10/23 05:01:24;;;;;;;15.45;7.80;;;;;;;;;;4996939;28;20123;-75
2023/10/23 05:03:49;;;;;;;12.73;7.35;;;;;;;;;;4998475;28;20061;-75
2023/10/23 05:06:14;;;;;;;16.55;8.25;;;;;;;;;;5000474;28;20108;-76
2023/10/23 05:08:40;;;;;;;12.30;8.80;;;;;;;;;;4997707;28;20042;-76
2023/10/23 05:11:06;;;;;;;17.23;9.90;;;;;;;;;;4994792;28;20030;-77
2023/10/23 05:13:32;;;;;;;15.23;9.48;;;;;;;;;;4995082;28;20117;-77
2023/10/23 05:16:06;;;;;;;14.13;8.75;;;;;;;;;;4995535;28;20487;-77
2023/10/23 05:18:33;;;;;;;12.13;8.38;;;;;;;;;;4997917;28;20039;-77
2023/10/23 05:20:58;;;;;;;10.57;7.10;;;;;;;;;;4999251;28;20030;-77
2023/10/23 05:23:24;;;;;;;132.38;13.05;;;;;;;;;;4997427;28;20080;-77
2023/10/23 05:25:49;;;;;;;7.72;6.13;;;;;;;;;;4992926;28;20062;-77
2023/10/23 05:28:14;;;;;;;69.35;8.43;;;;;;;;;;5000138;28;20034;-77
2023/10/23 05:30:40;;;;;;;19.90;6.07;;;;;;;;;;4992655;28;20658;-74
2023/10/23 05:33:05;;;;;;;9.60;6.97;;;;;;;;;;4992786;28;20018;-76
2023/10/23 05:35:30;;;;;;;10.50;6.53;;;;;;;;;;4998036;28;20450;-75
2023/10/23 05:37:56;;;;;;;23.17;8.65;;;;;;;;;;4994709;28;20117;-75
2023/10/23 05:40:21;;;;;;;15.57;8.35;;;;;;;;;;4992851;28;20048;-75
2023/10/23 05:42:46;;;;;;;30.23;7.72;;;;;;;;;;4996643;28;20033;-77
2023/10/23 05:45:12;;;;;;;8.35;6.35;;;;;;;;;;4994677;28;20136;-74
2023/10/23 05:47:37;;;;;;;8.75;6.88;;;;;;;;;;4993001;28;20418;-77
2023/10/23 05:50:04;;;;;;;9.85;6.45;;;;;;;;;;4996250;28;20045;-74
2023/10/23 05:52:30;;;;;;;9.43;6.55;;;;;;;;;;4997938;28;20045;-75
2023/10/23 05:54:55;;;;;;;8.10;5.28;;;;;;;;;;4992096;28;20329;-75
2023/10/23 05:57:20;;;;;;;15.13;6.53;;;;;;;;;;4992122;28;20106;-75
2023/10/23 05:59:45;;;;;;;10.70;6.78;;;;;;;;;;4993380;28;20086;-75
2023/10/23 06:02:11;;;;;;;8.68;6.47;;;;;;;;;;4996436;28;20026;-75
2023/10/23 06:04:36;;;;;;;7.90;6.07;;;;;;;;;;4997444;28;20514;-75
2023/10/23 06:07:01;;;;;;;10.52;6.30;;;;;;;;;;4996255;28;20077;-76
2023/10/23 06:09:28;;;;;;;12.27;6.75;;;;;;;;;;4995023;28;20515;-76
2023/10/23 06:11:53;;;;;;;11.98;6.95;;;;;;;;;;4994311;28;20117;-75
2023/10/23 06:14:18;;;;;;;11.95;6.38;;;;;;;;;;4993348;28;20163;-75
2023/10/23 06:16:44;;;;;;;8.50;6.28;;;;;;;;;;4998049;28;20066;-76
2023/10/23 06:19:09;;;;;;;10.23;6.28;;;;;;;;;;4996526;28;20034;-75
2023/10/23 06:21:34;;;;;;;98.43;10.07;;;;;;;;;;4998227;28;20045;-76
2023/10/23 06:24:00;;;;;;;13.05;5.30;;;;;;;;;;4998462;28;20034;-76
2023/10/23 06:26:28;;;;;;;12.65;5.57;;;;;;;;;;4991818;28;20061;-76
2023/10/23 06:28:53;;;;;;;122.45;10.77;;;;;;;;;;4993723;28;20042;-76
2023/10/23 06:31:19;;;;;;;6.45;4.40;;;;;;;;;;4995122;28;20048;-75
2023/10/23 06:33:44;;;;;;;5.53;4.53;;;;;;;;;;4997910;28;20046;-75
2023/10/23 06:36:10;;;;;;;5.38;4.30;;;;;;;;;;4998478;28;20041;-75
2023/10/23 06:38:36;;;;;;;145.63;11.48;;;;;;;;;;4993244;28;20069;-76
2023/10/23 06:41:05;;;;;;;5.40;4.32;;;;;;;;;;4990513;28;20038;-76
2023/10/23 06:43:32;;;;;;;8.02;4.82;;;;;;;;;;4997354;28;20034;-76
2023/10/23 06:45:57;;;;;;;4.40;3.85;;;;;;;;;;4997949;28;20031;-77
2023/10/23 06:48:22;;;;;;;7.53;4.63;;;;;;;;;;4998531;28;20096;-76
2023/10/23 06:50:47;;;;;;;4.35;3.92;;;;;;;;;;5002982;28;20277;-75
2023/10/23 06:53:14;;;;;;;5.97;4.25;;;;;;;;;;4993202;28;20046;-76
2023/10/23 06:55:54;;;;;;;5.30;4.40;;;;;;;;;;4990507;28;20050;-75
2023/10/23 06:58:20;;;;;;;7.75;4.30;;;;;;;;;;4998466;28;20046;-77
2023/10/23 07:00:46;;;;;;;6.57;3.90;;;;;;;;;;4993781;28;20053;-76
2023/10/23 07:03:13;;;;;;;6.60;4.40;;;;;;;;;;4994739;28;20025;-76
2023/10/23 07:05:39;;;;;;;5.70;4.32;;;;;;;;;;4993803;28;20030;-76
2023/10/23 07:08:05;;;;;;;5.57;4.75;;;;;;;;;;4996906;28;20042;-76
2023/10/23 07:10:35;;;;;;;10.63;5.28;;;;;;;;;;4999020;28;20426;-76
2023/10/23 07:13:00;;;;;;;6.47;4.80;;;;;;;;;;4996228;28;20088;-77
2023/10/23 07:15:26;;;;;;;6.05;5.03;;;;;;;;;;4998350;28;20042;-77
2023/10/23 07:17:51;;;;;;;5.55;4.50;;;;;;;;;;5006413;28;20042;-77
2023/10/23 07:20:17;;;;;;;6.32;4.80;;;;;;;;;;5001777;28;20057;-76
2023/10/23 07:22:43;;;;;;;4.40;4.00;;;;;;;;;;4994050;28;20061;-76
2023/10/23 07:25:13;;;;;;;4.13;3.50;;;;;;;;;;5002440;28;20034;-76
2023/10/23 07:27:39;;;;;;;7.22;4.38;;;;;;;;;;5012711;28;20039;-76
2023/10/23 07:30:05;;;;;;;3.92;3.53;;;;;;;;;;4996909;28;20029;-76
2023/10/23 07:32:30;;;;;;;3.42;2.97;;;;;;;;;;5002551;28;20037;-77
2023/10/23 07:34:55;;;;;;;7.75;3.35;;;;;;;;;;4998256;28;20027;-76
2023/10/23 07:37:22;;;;;;;3.50;3.20;;;;;;;;;;4997225;28;20061;-77
2023/10/23 07:39:48;;;;;;;4.97;3.50;;;;;;;;;;4995015;28;20125;-76
2023/10/23 07:42:16;;;;;;;4.75;3.47;;;;;;;;;;5000856;28;20109;-76
2023/10/23 07:44:42;;;;;;;3.33;3.00;;;;;;;;;;4997312;28;20018;-76
2023/10/23 07:47:07;;;;;;;4.95;3.58;;;;;;;;;;4997061;28;20050;-76
2023/10/23 07:49:33;;;;;;;4.75;2.60;;;;;;;;;;4994449;28;20061;-76
2023/10/23 07:51:58;;;;;;;6.40;2.50;;;;;;;;;;4995640;28;20034;-76
2023/10/23 07:54:24;;;;;;;6.05;2.75;;;;;;;;;;4992850;28;20034;-76
2023/10/23 07:56:49;;;;;;;2.88;2.58;;;;;;;;;;5000397;28;20029;-76
2023/10/23 07:59:16;;;;;;;2.53;2.30;;;;;;;;;;4999207;28;20095;-76
2023/10/23 08:01:41;;;;;;;2.83;2.33;;;;;;;;;;4997968;28;20045;-76
2023/10/23 08:04:06;;;;;;;3.22;2.60;;;;;;;;;;4993395;28;20403;-76
2023/10/23 08:06:32;;;;;;;4.00;2.00;;;;;;;;;;5001742;28;20030;-76
2023/10/23 08:08:57;;;;;;;2.55;1.58;;;;;;;;;;4996399;28;21070;-76
2023/10/23 08:11:22;;;;;;;2.78;2.00;;;;;;;;;;4996200;28;20134;-76
2023/10/23 08:13:51;;;;;;;1.65;1.55;;;;;;;;;;5000295;28;20042;-76
2023/10/23 08:16:16;;;;;;;1.70;1.60;;;;;;;;;;4998073;28;20407;-76
2023/10/23 08:18:41;;;;;;;1.85;1.75;;;;;;;;;;5000436;28;20042;-76
2023/10/23 08:21:15;;;;;;;3.03;1.67;;;;;;;;;;4999471;28;20018;-76
2023/10/23 08:23:41;;;;;;;2.35;1.60;;;;;;;;;;4996298;28;20021;-76
2023/10/23 08:26:07;;;;;;;1.27;1.20;;;;;;;;;;4995610;28;20034;-76
2023/10/23 08:28:32;;;;;;;2.25;1.92;;;;;;;;;;4998418;28;20406;-76
2023/10/23 08:30:57;;;;;;;3.08;1.75;;;;;;;;;;4996912;28;20038;-76
2023/10/23 08:33:23;;;;;;;1.98;1.40;;;;;;;;;;4996942;28;20461;-76
2023/10/23 08:35:48;;;;;;;1.30;1.23;;;;;;;;;;4996155;28;20042;-76
2023/10/23 08:38:13;;;;;;;1.38;1.27;;;;;;;;;;4999960;28;20034;-76
2023/10/23 08:40:39;;;;;;;1.60;1.10;;;;;;;;;;5001102;28;20510;-76
2023/10/23 08:43:05;;;;;;;1.30;1.20;;;;;;;;;;4997711;28;20538;-76
2023/10/23 08:45:31;;;;;;;4.43;1.10;;;;;;;;;;4999091;28;20049;-76
2023/10/23 08:47:57;;;;;;;4.30;1.13;;;;;;;;;;4993457;28;20101;-76
2023/10/23 08:50:23;;;;;;;1.38;1.27;;;;;;;;;;4996959;28;20495;-77
2023/10/23 08:52:59;;;;;;;0.90;0.90;;;;;;;;;;4999632;28;20040;-76
2023/10/23 08:55:27;;;;;;;1.00;1.00;;;;;;;;;;4997359;28;20173;-76
2023/10/23 08:57:54;;;;;;;1.15;1.08;;;;;;;;;;5001356;28;20034;-76
2023/10/23 09:00:22;;;;;;;1.23;1.15;;;;;;;;;;5000348;28;20022;-76
2023/10/23 09:02:49;;;;;;;1.23;1.15;;;;;;;;;;5001986;28;20038;-76
2023/10/23 09:05:14;;;;;;;2.05;1.15;;;;;;;;;;4997633;28;20047;-75
2023/10/23 09:07:40;;;;;;;1.00;1.00;;;;;;;;;;4993767;28;20049;-75
2023/10/23 09:10:05;;;;;;;1.25;1.00;;;;;;;;;;4998095;28;20026;-75
2023/10/23 09:12:33;;;;;;;3.90;1.30;;;;;;;;;;5000696;28;20030;-75
2023/10/23 09:15:15;;;;;;;2.17;1.10;;;;;;;;;;5004913;28;20025;-75
2023/10/23 09:17:41;;;;;;;2.53;1.15;;;;;;;;;;4996190;28;20042;-75
2023/10/23 09:20:15;;;;;;;2.75;1.17;;;;;;;;;;4996309;28;20034;-75
2023/10/23 09:22:41;;;;;;;3.08;1.13;;;;;;;;;;5000004;28;20030;-75
2023/10/23 09:25:09;;;;;;;1.05;1.02;;;;;;;;;;4998494;28;20041;-75
2023/10/23 09:27:35;;;;;;;3.05;1.60;;;;;;;;;;5000367;28;20030;-75
2023/10/23 09:30:02;;;;;;;1.00;0.82;;;;;;;;;;4996100;28;20064;-75
2023/10/23 09:32:27;;;;;;;1.08;1.08;;;;;;;;;;4991331;28;20031;-75
2023/10/23 09:34:53;;;;;;;1.67;1.30;;;;;;;;;;5003443;28;20030;-75
2023/10/23 09:37:19;;;;;;;1.00;0.93;;;;;;;;;;5001888;28;20418;-75
2023/10/23 09:39:45;;;;;;;1.25;1.05;;;;;;;;;;5001449;28;20042;-76
2023/10/23 09:42:11;;;;;;;1.20;1.10;;;;;;;;;;5002863;28;20022;-76
2023/10/23 09:44:39;;;;;;;1.88;1.20;;;;;;;;;;4998837;28;20470;-76
2023/10/23 09:47:05;;;;;;;1.30;1.20;;;;;;;;;;4995460;28;20030;-76
2023/10/23 09:49:32;;;;;;;1.63;1.52;;;;;;;;;;5001265;28;20083;-75
2023/10/23 09:51:59;;;;;;;1.30;1.20;;;;;;;;;;4998459;28;20347;-76
2023/10/23 09:54:30;;;;;;;1.67;1.15;;;;;;;;;;5001634;28;20113;-76
2023/10/23 09:56:56;;;;;;;1.30;1.20;;;;;;;;;;5006278;28;20018;-76
2023/10/23 09:59:29;;;;;;;1.08;0.98;;;;;;;;;;5003346;28;20065;-76
2023/10/23 10:01:59;;;;;;;2.20;1.08;;;;;;;;;;5003315;28;20030;-76
2023/10/23 10:04:32;;;;;;;1.08;1.08;;;;;;;;;;5006063;28;20710;-77
2023/10/23 10:07:10;;;;;;;1.33;1.23;;;;;;;;;;5003286;28;20042;-76
2023/10/23 10:09:36;;;;;;;1.08;1.08;;;;;;;;;;5003666;28;20038;-75
2023/10/23 10:12:03;;;;;;;2.25;1.45;;;;;;;;;;5003629;28;20037;-75
2023/10/23 10:14:30;;;;;;;1.25;1.10;;;;;;;;;;5007012;28;20041;-76
2023/10/23 10:16:57;;;;;;;1.10;1.10;;;;;;;;;;5002010;28;20038;-76
2023/10/23 10:19:24;;;;;;;0.98;0.98;;;;;;;;;;5001889;28;20041;-76
2023/10/23 10:21:58;;;;;;;1.70;1.38;;;;;;;;;;5005421;28;20049;-76
2023/10/23 10:24:24;;;;;;;4.10;1.58;;;;;;;;;;5004405;28;20040;-76
2023/10/23 10:26:50;;;;;;;1.77;1.38;;;;;;;;;;5004702;28;20022;-76
2023/10/23 10:29:15;;;;;;;1.60;1.30;;;;;;;;;;5003897;28;20674;-76
2023/10/23 10:32:04;;;;;;;2.33;1.35;;;;;;;;;;5005472;28;20038;-76
2023/10/23 10:34:34;;;;;;;2.80;1.60;;;;;;;;;;5006209;28;20456;-76
2023/10/23 10:37:01;;;;;;;1.48;1.38;;;;;;;;;;5003191;28;20060;-76
2023/10/23 10:40:03;;;;;;;1.73;1.42;;;;;;;;;;5001791;28;20033;-76
2023/10/23 10:42:29;;;;;;;1.90;1.55;;;;;;;;;;5006100;28;20026;-76
2023/10/23 10:44:56;;;;;;;2.05;1.55;;;;;;;;;;5004253;28;20033;-76
2023/10/23 10:47:34;;;;;;;1.42;1.30;;;;;;;;;;4997977;28;20041;-76
2023/10/23 10:50:00;;;;;;;2.80;1.30;;;;;;;;;;5004451;28;20085;-75
2023/10/23 10:52:32;;;;;;;1.85;1.70;;;;;;;;;;5003072;28;20226;-76
2023/10/23 10:55:00;;;;;;;2.38;1.30;;;;;;;;;;5005552;28;20030;-76
2023/10/23 10:57:26;;;;;;;2.22;1.50;;;;;;;;;;5003108;28;20030;-75
2023/10/23 10:59:55;;;;;;;1.92;1.60;;;;;;;;;;5005712;28;20464;-76
2023/10/23 11:02:22;;;;;;;2.33;1.40;;;;;;;;;;5003656;28;20053;-75
2023/10/23 11:04:47;;;;;;;1.90;1.70;;;;;;;;;;4999757;28;20030;-75
2023/10/23 11:07:13;;;;;;;1.45;1.35;;;;;;;;;;5005473;28;20060;-76
2023/10/23 11:09:38;;;;;;;1.83;1.33;;;;;;;;;;5002287;28;20068;-76
2023/10/23 11:12:06;;;;;;;1.67;1.58;;;;;;;;;;5002992;28;20037;-75
2023/10/23 11:14:31;;;;;;;1.70;1.52;;;;;;;;;;5005731;28;20084;-76
2023/10/23 11:16:57;;;;;;;1.20;1.20;;;;;;;;;;5002964;28;20479;-75
2023/10/23 11:19:22;;;;;;;4.82;1.52;;;;;;;;;;5002225;28;20033;-75
2023/10/23 11:21:47;;;;;;;1.50;1.40;;;;;;;;;;5004471;28;20513;-76
2023/10/23 11:24:13;;;;;;;1.88;1.40;;;;;;;;;;5004081;28;20726;-75
2023/10/23 11:26:39;;;;;;;1.70;1.60;;;;;;;;;;5002746;28;20399;-76
2023/10/23 11:29:05;;;;;;;1.42;1.30;;;;;;;;;;5000010;28;20030;-76
2023/10/23 11:31:30;;;;;;;1.50;1.40;;;;;;;;;;4998041;28;20415;-76
2023/10/23 11:33:56;;;;;;;2.78;1.77;;;;;;;;;;5003688;28;20030;-75
2023/10/23 11:36:21;;;;;;;1.10;1.10;;;;;;;;;;5003732;28;20030;-79
2023/10/23 11:38:47;;;;;;;2.45;1.20;;;;;;;;;;5018478;28;20032;-77
2023/10/23 11:41:13;;;;;;;1.67;1.42;;;;;;;;;;5015836;28;20130;-78
2023/10/23 11:43:38;;;;;;;1.30;1.20;;;;;;;;;;5016209;28;20052;-79
2023/10/23 11:46:07;;;;;;;1.58;1.00;;;;;;;;;;5017291;28;20117;-78
2023/10/23 11:48:32;;;;;;;1.95;1.20;;;;;;;;;;5017001;28;20032;-79
2023/10/23 11:50:59;;;;;;;1.52;1.42;;;;;;;;;;5018553;28;20104;-77
2023/10/23 11:53:26;;;;;;;2.00;1.13;;;;;;;;;;5017247;28;20054;-78
2023/10/23 11:55:51;;;;;;;2.72;1.20;;;;;;;;;;5016354;28;20034;-78
2023/10/23 11:58:29;;;;;;;2.70;1.30;;;;;;;;;;5017376;28;20036;-77
2023/10/23 12:00:54;;;;;;;3.20;1.60;;;;;;;;;;5015298;28;20034;-77
2023/10/23 12:03:20;;;;;;;2.15;1.20;;;;;;;;;;5014799;28;20508;-76
2023/10/23 12:05:46;;;;;;;1.45;1.10;;;;;;;;;;5017217;28;20052;-79
2023/10/23 12:08:12;;;;;;;1.00;1.00;;;;;;;;;;5014852;28;20046;-78
2023/10/23 12:10:38;;;;;;;1.02;1.00;;;;;;;;;;5015970;28;20068;-78
2023/10/23 12:13:03;;;;;;;2.13;1.17;;;;;;;;;;5015075;28;20034;-78
2023/10/23 12:15:29;;;;;;;2.00;0.98;;;;;;;;;;4996998;28;20062;-78
2023/10/23 12:18:02;;;;;;;1.13;1.02;;;;;;;;;;4995885;28;20390;-77
2023/10/23 12:20:29;;;;;;;2.08;1.40;;;;;;;;;;4994405;28;20038;-77
2023/10/23 12:22:54;;;;;;;1.10;1.10;;;;;;;;;;4994166;28;20046;-79
2023/10/23 12:25:20;;;;;;;1.77;1.20;;;;;;;;;;4995360;28;20046;-77
2023/10/23 12:27:45;;;;;;;2.50;1.50;;;;;;;;;;4995943;28;20033;-78
2023/10/23 12:30:11;;;;;;;1.58;1.20;;;;;;;;;;4996425;28;20026;-78
2023/10/23 12:32:40;;;;;;;2.13;1.20;;;;;;;;;;4996443;28;20558;-81
2023/10/23 12:35:07;;;;;;;1.20;1.10;;;;;;;;;;5013261;28;20026;-77
2023/10/23 12:37:33;;;;;;;1.20;1.10;;;;;;;;;;5013200;28;20037;-78
2023/10/23 12:40:00;;;;;;;1.02;1.00;;;;;;;;;;5013015;28;20040;-78
2023/10/23 12:42:26;;;;;;;1.30;1.20;;;;;;;;;;5015409;28;20122;-77
2023/10/23 12:44:52;;;;;;;1.27;1.17;;;;;;;;;;5009437;28;20031;-78
2023/10/23 12:47:18;;;;;;;1.25;1.15;;;;;;;;;;4995557;28;20057;-76
2023/10/23 12:49:44;;;;;;;1.30;1.20;;;;;;;;;;4995695;28;20041;-77
2023/10/23 12:52:11;;;;;;;1.58;1.10;;;;;;;;;;5012991;28;20053;-78
2023/10/23 12:54:38;;;;;;;1.10;1.00;;;;;;;;;;5012603;28;20041;-78
2023/10/23 12:57:04;;;;;;;1.23;1.02;;;;;;;;;;4995175;28;20080;-76
2023/10/23 12:59:31;;;;;;;1.20;1.20;;;;;;;;;;4995482;28;20022;-78
2023/10/23 13:01:56;;;;;;;2.38;1.30;;;;;;;;;;4995458;28;20471;-79
2023/10/23 13:04:21;;;;;;;1.95;1.40;;;;;;;;;;4995432;28;20041;-76
2023/10/23 13:06:51;;;;;;;2.30;1.13;;;;;;;;;;4996934;28;20045;-76
2023/10/23 13:09:16;;;;;;;1.15;1.15;;;;;;;;;;4996561;28;20158;-79
2023/10/23 13:11:42;;;;;;;3.22;1.30;;;;;;;;;;4995282;28;20498;-79
2023/10/23 13:14:08;;;;;;;2.83;1.20;;;;;;;;;;5004782;28;20402;-78
2023/10/23 13:16:33;;;;;;;4.68;1.00;;;;;;;;;;5015868;28;20041;-77
2023/10/23 13:18:58;;;;;;;1.30;1.20;;;;;;;;;;5013853;28;20034;-77
2023/10/23 13:21:24;;;;;;;1.20;1.10;;;;;;;;;;4994970;28;20144;-77
2023/10/23 13:23:49;;;;;;;1.40;1.30;;;;;;;;;;4993770;28;20498;-78
2023/10/23 13:26:17;;;;;;;1.50;1.40;;;;;;;;;;4995714;28;20038;-78
2023/10/23 13:28:42;;;;;;;2.28;1.52;;;;;;;;;;5012277;28;20034;-77
2023/10/23 13:31:07;;;;;;;2.75;1.60;;;;;;;;;;5012699;28;20060;-78
2023/10/23 13:33:33;;;;;;;3.20;1.30;;;;;;;;;;5012156;28;20038;-78
2023/10/23 13:35:59;;;;;;;1.35;1.23;;;;;;;;;;5015097;28;20030;-78
2023/10/23 13:38:24;;;;;;;15.70;1.42;;;;;;;;;;5012545;28;20045;-77
2023/10/23 13:40:49;;;;;;;1.25;1.00;;;;;;;;;;5008070;28;20038;-78
2023/10/23 13:43:15;;;;;;;1.90;1.23;;;;;;;;;;4995008;28;20046;-75
2023/10/23 13:45:40;;;;;;;3.33;1.00;;;;;;;;;;4994474;28;20041;-77
2023/10/23 13:48:05;;;;;;;1.05;1.05;;;;;;;;;;4994119;28;20023;-78
2023/10/23 13:50:33;;;;;;;6.18;1.33;;;;;;;;;;4992718;28;20033;-78
2023/10/23 13:52:58;;;;;;;4.78;1.60;;;;;;;;;;4992043;28;20074;-77
2023/10/23 13:55:24;;;;;;;1.55;1.25;;;;;;;;;;4994813;28;20042;-77
2023/10/23 13:57:49;;;;;;;1.35;1.25;;;;;;;;;;4994876;28;20035;-78
2023/10/23 14:00:15;;;;;;;1.50;1.10;;;;;;;;;;4993326;28;20033;-77
2023/10/23 14:02:40;;;;;;;1.00;1.00;;;;;;;;;;4996102;28;20026;-77
2023/10/23 14:05:06;;;;;;;4.38;1.13;;;;;;;;;;4995336;28;20034;-78
2023/10/23 14:07:31;;;;;;;1.40;1.30;;;;;;;;;;4994201;28;20034;-77
2023/10/23 14:09:56;;;;;;;2.17;1.58;;;;;;;;;;4994913;28;20046;-78
2023/10/23 14:12:22;;;;;;;2.85;1.70;;;;;;;;;;4996443;28;20053;-78
2023/10/23 14:14:47;;;;;;;1.48;1.33;;;;;;;;;;4996562;28;20023;-78
2023/10/23 14:17:12;;;;;;;1.20;1.10;;;;;;;;;;4995065;28;20103;-77
2023/10/23 14:19:38;;;;;;;1.40;1.30;;;;;;;;;;4996635;28;20499;-78
2023/10/23 14:22:03;;;;;;;1.20;1.20;;;;;;;;;;4996601;28;20046;-78
2023/10/23 14:24:30;;;;;;;1.48;1.38;;;;;;;;;;4995915;28;20038;-78
2023/10/23 14:26:55;;;;;;;2.08;1.15;;;;;;;;;;4996873;28;20026;-76
2023/10/23 14:29:21;;;;;;;7.68;1.35;;;;;;;;;;4994548;28;20084;-77
2023/10/23 14:31:47;;;;;;;4.78;1.40;;;;;;;;;;4996156;28;20035;-79